createdAt,value
2019-05-20T00:00:16.652Z,977.69
2019-05-20T00:01:16.803Z,977.67
2019-05-20T00:02:26.022Z,977.68
2019-05-20T00:03:17.102Z,977.65
2019-05-20T00:04:17.253Z,977.68
2019-05-20T00:05:17.415Z,977.58
2019-05-20T00:06:17.536Z,977.59
2019-05-20T00:07:17.682Z,977.61
2019-05-20T00:08:17.832Z,977.59
2019-05-20T00:09:17.985Z,977.65
2019-05-20T00:10:18.133Z,977.63
2019-05-20T00:11:18.290Z,977.68
2019-05-20T00:12:18.444Z,977.66
2019-05-20T00:13:18.593Z,977.66
2019-05-20T00:14:18.743Z,977.64
2019-05-20T00:15:18.894Z,977.59
2019-05-20T00:16:19.040Z,977.58
2019-05-20T00:17:19.190Z,977.54
2019-05-20T00:18:19.340Z,977.51
2019-05-20T00:19:19.492Z,977.46
2019-05-20T00:20:19.637Z,977.44
2019-05-20T00:21:19.786Z,977.38
2019-05-20T00:22:19.938Z,977.36
2019-05-20T00:23:20.089Z,977.30
2019-05-20T00:24:20.240Z,977.25
2019-05-20T00:25:20.389Z,977.20
2019-05-20T00:26:20.540Z,977.18
2019-05-20T00:27:20.688Z,977.14
2019-05-20T00:28:20.844Z,977.14
2019-05-20T00:29:20.993Z,977.11
2019-05-20T00:30:21.143Z,977.15
2019-05-20T00:31:21.289Z,977.19
2019-05-20T00:32:21.441Z,977.25
2019-05-20T00:33:21.594Z,977.32
2019-05-20T00:34:34.303Z,977.35
2019-05-20T00:35:21.891Z,977.38
2019-05-20T00:36:22.042Z,977.39
2019-05-20T00:37:22.191Z,977.37
2019-05-20T00:38:22.342Z,977.36
2019-05-20T00:39:22.491Z,977.37
2019-05-20T00:40:22.660Z,977.39
2019-05-20T00:41:22.792Z,977.39
2019-05-20T00:42:22.941Z,977.37
2019-05-20T00:43:23.093Z,977.38
2019-05-20T00:44:23.240Z,977.33
2019-05-20T00:45:23.387Z,977.36
2019-05-20T00:46:23.536Z,977.41
2019-05-20T00:47:23.691Z,977.44
2019-05-20T00:48:23.841Z,977.47
2019-05-20T00:49:23.991Z,977.46
2019-05-20T00:50:24.137Z,977.48
2019-05-20T00:51:24.288Z,977.46
2019-05-20T00:52:24.439Z,977.45
2019-05-20T00:53:24.588Z,977.46
2019-05-20T00:54:24.738Z,977.43
2019-05-20T00:55:24.887Z,977.40
2019-05-20T00:56:25.036Z,977.37
2019-05-20T00:57:25.191Z,977.36
2019-05-20T00:58:25.339Z,977.33
2019-05-20T00:59:25.491Z,977.32
2019-05-20T01:00:25.641Z,977.28
2019-05-20T01:01:25.791Z,977.29
2019-05-20T01:02:25.944Z,977.27
2019-05-20T01:03:26.089Z,977.26
2019-05-20T01:04:26.242Z,977.27
2019-05-20T01:05:26.409Z,977.28
2019-05-20T01:06:26.542Z,977.22
2019-05-20T01:07:26.693Z,977.23
2019-05-20T01:08:26.842Z,977.20
2019-05-20T01:09:26.993Z,977.18
2019-05-20T01:10:27.142Z,977.17
2019-05-20T01:11:27.291Z,977.18
2019-05-20T01:12:27.453Z,977.14
2019-05-20T01:13:27.593Z,977.15
2019-05-20T01:14:27.745Z,977.12
2019-05-20T01:15:27.893Z,977.13
2019-05-20T01:16:28.043Z,977.12
2019-05-20T01:17:28.194Z,977.15
2019-05-20T01:18:28.343Z,977.16
2019-05-20T01:19:28.493Z,977.15
2019-05-20T01:20:28.646Z,977.15
2019-05-20T01:21:28.794Z,977.12
2019-05-20T01:22:28.945Z,977.15
2019-05-20T01:23:29.095Z,977.14
2019-05-20T01:24:29.350Z,977.13
2019-05-20T01:25:29.394Z,977.15
2019-05-20T01:26:29.548Z,977.13
2019-05-20T01:27:29.705Z,977.14
2019-05-20T01:28:29.844Z,977.16
2019-05-20T01:29:29.995Z,977.16
2019-05-20T01:30:30.144Z,977.16
2019-05-20T01:31:30.295Z,977.19
2019-05-20T01:32:30.445Z,977.22
2019-05-20T01:33:30.602Z,977.22
2019-05-20T01:34:30.740Z,977.26
2019-05-20T01:35:30.906Z,977.20
2019-05-20T01:36:31.060Z,977.16
2019-05-20T01:37:31.209Z,977.17
2019-05-20T01:38:31.358Z,977.19
2019-05-20T01:39:31.557Z,977.18
2019-05-20T01:40:31.663Z,977.18
2019-05-20T01:41:31.813Z,977.15
2019-05-20T01:42:31.963Z,977.21
2019-05-20T01:43:32.114Z,977.16
2019-05-20T01:44:32.263Z,977.19
2019-05-20T01:45:32.414Z,977.15
2019-05-20T01:46:32.564Z,977.19
2019-05-20T01:47:32.717Z,977.20
2019-05-20T01:48:32.869Z,977.19
2019-05-20T01:49:33.021Z,977.22
2019-05-20T01:50:33.171Z,977.25
2019-05-20T01:51:33.323Z,977.28
2019-05-20T01:52:33.479Z,977.26
2019-05-20T01:53:33.627Z,977.23
2019-05-20T01:54:33.771Z,977.22
2019-05-20T01:55:33.922Z,977.24
2019-05-20T01:56:34.074Z,977.20
2019-05-20T01:57:34.222Z,977.19
2019-05-20T01:58:34.371Z,977.18
2019-05-20T01:59:34.521Z,977.17
2019-05-20T02:00:34.674Z,977.12
2019-05-20T02:01:34.824Z,977.15
2019-05-20T02:02:34.980Z,977.17
2019-05-20T02:03:35.127Z,977.17
2019-05-20T02:04:35.276Z,977.23
2019-05-20T02:05:35.426Z,977.24
2019-05-20T02:06:35.574Z,977.26
2019-05-20T02:07:35.729Z,977.25
2019-05-20T02:08:35.876Z,977.25
2019-05-20T02:09:36.030Z,977.24
2019-05-20T02:10:36.177Z,977.18
2019-05-20T02:11:36.327Z,977.22
2019-05-20T02:12:36.497Z,977.20
2019-05-20T02:13:36.626Z,977.19
2019-05-20T02:14:36.782Z,977.23
2019-05-20T02:15:36.929Z,977.24
2019-05-20T02:16:37.105Z,977.18
2019-05-20T02:17:37.233Z,977.21
2019-05-20T02:18:37.382Z,977.17
2019-05-20T02:19:37.533Z,977.13
2019-05-20T02:20:37.730Z,977.15
2019-05-20T02:21:37.852Z,977.14
2019-05-20T02:22:37.998Z,977.13
2019-05-20T02:23:38.147Z,977.12
2019-05-20T02:24:38.295Z,977.10
2019-05-20T02:25:38.450Z,977.10
2019-05-20T02:26:38.596Z,977.05
2019-05-20T02:27:38.759Z,977.06
2019-05-20T02:28:38.900Z,977.05
2019-05-20T02:29:39.052Z,977.09
2019-05-20T02:30:39.207Z,977.07
2019-05-20T02:31:39.353Z,977.04
2019-05-20T02:32:39.502Z,977.05
2019-05-20T02:33:51.095Z,977.04
2019-05-20T02:34:39.802Z,977.04
2019-05-20T02:35:39.956Z,977.05
2019-05-20T02:36:40.105Z,977.02
2019-05-20T02:37:40.272Z,977.07
2019-05-20T02:38:40.426Z,977.06
2019-05-20T02:39:40.557Z,977.03
2019-05-20T02:40:40.708Z,977.00
2019-05-20T02:41:40.859Z,976.98
2019-05-20T02:42:41.011Z,976.98
2019-05-20T02:43:41.160Z,976.93
2019-05-20T02:44:41.316Z,976.93
2019-05-20T02:45:41.468Z,976.93
2019-05-20T02:46:41.619Z,976.96
2019-05-20T02:47:41.771Z,976.97
2019-05-20T02:48:41.921Z,976.95
2019-05-20T02:49:42.072Z,976.95
2019-05-20T02:50:42.245Z,976.91
2019-05-20T02:51:42.374Z,976.92
2019-05-20T02:52:42.523Z,976.92
2019-05-20T02:53:42.675Z,976.95
2019-05-20T02:54:42.827Z,976.92
2019-05-20T02:55:42.996Z,976.97
2019-05-20T02:56:43.129Z,976.99
2019-05-20T02:57:43.284Z,976.99
2019-05-20T02:58:43.431Z,977.01
2019-05-20T02:59:43.581Z,977.00
2019-05-20T03:00:43.742Z,977.00
2019-05-20T03:01:43.892Z,977.01
2019-05-20T03:02:44.040Z,976.99
2019-05-20T03:03:44.192Z,977.00
2019-05-20T03:04:44.343Z,977.05
2019-05-20T03:05:44.494Z,977.03
2019-05-20T03:06:44.652Z,977.03
2019-05-20T03:07:44.796Z,977.03
2019-05-20T03:08:44.945Z,977.06
2019-05-20T03:09:45.095Z,977.06
2019-05-20T03:10:45.244Z,977.09
2019-05-20T03:11:45.397Z,977.09
2019-05-20T03:12:45.547Z,977.06
2019-05-20T03:13:45.698Z,977.06
2019-05-20T03:14:45.848Z,977.04
2019-05-20T03:15:45.999Z,977.04
2019-05-20T03:16:46.152Z,977.02
2019-05-20T03:17:46.311Z,976.98
2019-05-20T03:18:46.458Z,976.93
2019-05-20T03:19:46.610Z,976.95
2019-05-20T03:20:46.758Z,976.92
2019-05-20T03:21:46.909Z,976.91
2019-05-20T03:22:47.061Z,976.90
2019-05-20T03:23:47.210Z,976.87
2019-05-20T03:24:47.362Z,976.84
2019-05-20T03:25:47.513Z,976.84
2019-05-20T03:26:47.664Z,976.83
2019-05-20T03:27:47.821Z,976.80
2019-05-20T03:28:47.967Z,976.79
2019-05-20T03:29:48.116Z,976.80
2019-05-20T03:30:48.268Z,976.80
2019-05-20T03:31:48.419Z,976.80
2019-05-20T03:32:48.582Z,976.84
2019-05-20T03:33:48.733Z,976.84
2019-05-20T03:34:58.730Z,976.81
2019-05-20T03:35:49.022Z,976.83
2019-05-20T03:36:49.170Z,976.83
2019-05-20T03:37:49.325Z,976.83
2019-05-20T03:38:49.481Z,976.84
2019-05-20T03:39:49.622Z,976.81
2019-05-20T03:40:49.779Z,976.79
2019-05-20T03:41:49.926Z,976.78
2019-05-20T03:42:50.078Z,976.79
2019-05-20T03:43:50.231Z,976.76
2019-05-20T03:44:50.378Z,976.78
2019-05-20T03:45:50.529Z,976.79
2019-05-20T03:46:50.680Z,976.83
2019-05-20T03:47:50.828Z,976.84
2019-05-20T03:48:50.982Z,976.76
2019-05-20T03:49:51.135Z,976.76
2019-05-20T03:50:51.283Z,976.79
2019-05-20T03:51:52.525Z,976.79
2019-05-20T03:52:51.595Z,976.79
2019-05-20T03:53:51.740Z,976.80
2019-05-20T03:54:51.890Z,976.81
2019-05-20T03:55:52.042Z,976.80
2019-05-20T03:56:52.191Z,976.78
2019-05-20T03:57:52.341Z,976.83
2019-05-20T03:58:52.490Z,976.82
2019-05-20T03:59:52.644Z,976.80
2019-05-20T04:00:52.819Z,976.79
2019-05-20T04:01:52.946Z,976.80
2019-05-20T04:02:53.101Z,976.78
2019-05-20T04:03:53.251Z,976.81
2019-05-20T04:05:01.909Z,976.79
2019-05-20T04:05:53.552Z,976.80
2019-05-20T04:06:53.703Z,976.80
2019-05-20T04:07:53.855Z,976.80
2019-05-20T04:08:54.003Z,976.80
2019-05-20T04:09:54.155Z,976.77
2019-05-20T04:10:54.303Z,976.83
2019-05-20T04:11:54.456Z,976.80
2019-05-20T04:12:54.608Z,976.82
2019-05-20T04:13:54.759Z,976.79
2019-05-20T04:14:54.910Z,976.83
2019-05-20T04:15:55.063Z,976.81
2019-05-20T04:16:55.212Z,976.77
2019-05-20T04:17:55.364Z,976.80
2019-05-20T04:18:55.556Z,976.77
2019-05-20T04:19:55.669Z,976.82
2019-05-20T04:20:55.816Z,976.81
2019-05-20T04:21:55.967Z,976.81
2019-05-20T04:22:56.117Z,976.80
2019-05-20T04:24:00.807Z,976.82
2019-05-20T04:24:56.420Z,976.81
2019-05-20T04:25:56.579Z,976.82
2019-05-20T04:26:56.722Z,976.83
2019-05-20T04:27:56.877Z,976.83
2019-05-20T04:28:57.025Z,976.82
2019-05-20T04:29:57.177Z,976.83
2019-05-20T04:30:57.330Z,976.82
2019-05-20T04:31:57.482Z,976.79
2019-05-20T04:32:57.631Z,976.82
2019-05-20T04:33:57.781Z,976.84
2019-05-20T04:34:57.936Z,976.82
2019-05-20T04:35:58.088Z,976.80
2019-05-20T04:36:58.275Z,976.80
2019-05-20T04:37:58.389Z,976.81
2019-05-20T04:38:58.539Z,976.75
2019-05-20T04:39:58.697Z,976.78
2019-05-20T04:40:58.844Z,976.78
2019-05-20T04:41:58.994Z,976.79
2019-05-20T04:42:59.147Z,976.81
2019-05-20T04:43:59.299Z,976.78
2019-05-20T04:44:59.446Z,976.78
2019-05-20T04:45:59.599Z,976.74
2019-05-20T04:46:59.843Z,976.76
2019-05-20T04:47:59.900Z,976.79
2019-05-20T04:49:00.053Z,976.80
2019-05-20T04:50:00.204Z,976.80
2019-05-20T04:51:00.353Z,976.84
2019-05-20T04:52:00.505Z,976.87
2019-05-20T04:53:00.658Z,976.88
2019-05-20T04:54:00.811Z,976.89
2019-05-20T04:55:00.961Z,976.89
2019-05-20T04:56:01.115Z,976.87
2019-05-20T04:57:01.262Z,976.91
2019-05-20T04:58:01.423Z,976.90
2019-05-20T04:59:01.565Z,976.92
2019-05-20T05:00:01.717Z,976.93
2019-05-20T05:01:01.898Z,976.91
2019-05-20T05:02:02.049Z,976.93
2019-05-20T05:03:02.204Z,976.92
2019-05-20T05:04:02.355Z,976.95
2019-05-20T05:05:02.594Z,976.91
2019-05-20T05:06:02.656Z,976.97
2019-05-20T05:07:02.811Z,976.93
2019-05-20T05:08:02.960Z,976.94
2019-05-20T05:09:03.131Z,976.99
2019-05-20T05:10:03.274Z,976.98
2019-05-20T05:11:03.421Z,977.00
2019-05-20T05:12:03.577Z,976.98
2019-05-20T05:13:03.726Z,976.99
2019-05-20T05:14:03.883Z,976.99
2019-05-20T05:15:07.739Z,977.01
2019-05-20T05:16:04.183Z,977.06
2019-05-20T05:17:04.337Z,977.08
2019-05-20T05:18:04.483Z,977.07
2019-05-20T05:19:04.690Z,977.02
2019-05-20T05:20:04.827Z,977.07
2019-05-20T05:21:04.935Z,977.09
2019-05-20T05:22:05.094Z,977.07
2019-05-20T05:23:05.242Z,977.03
2019-05-20T05:24:05.396Z,977.05
2019-05-20T05:25:05.544Z,977.05
2019-05-20T05:26:05.701Z,977.01
2019-05-20T05:27:05.852Z,977.07
2019-05-20T05:28:06.002Z,977.05
2019-05-20T05:29:06.154Z,977.10
2019-05-20T05:30:06.308Z,977.10
2019-05-20T05:31:06.458Z,977.11
2019-05-20T05:32:06.610Z,977.11
2019-05-20T05:33:06.760Z,977.09
2019-05-20T05:34:06.913Z,977.09
2019-05-20T05:35:07.068Z,977.08
2019-05-20T05:36:07.217Z,977.07
2019-05-20T05:37:07.372Z,977.06
2019-05-20T05:38:07.578Z,977.07
2019-05-20T05:39:07.670Z,977.06
2019-05-20T05:40:08.339Z,977.10
2019-05-20T05:41:07.978Z,977.10
2019-05-20T05:42:08.130Z,977.10
2019-05-20T05:43:08.284Z,977.11
2019-05-20T05:44:08.436Z,977.10
2019-05-20T05:45:08.589Z,977.14
2019-05-20T05:46:08.742Z,977.10
2019-05-20T05:47:08.891Z,977.12
2019-05-20T05:48:09.044Z,977.14
2019-05-20T05:49:09.198Z,977.15
2019-05-20T05:50:09.348Z,977.17
2019-05-20T05:51:09.501Z,977.15
2019-05-20T05:52:09.656Z,977.14
2019-05-20T05:53:09.809Z,977.13
2019-05-20T05:54:09.960Z,977.10
2019-05-20T05:55:10.111Z,977.13
2019-05-20T05:56:10.263Z,977.14
2019-05-20T05:57:10.417Z,977.13
2019-05-20T05:58:10.567Z,977.14
2019-05-20T05:59:10.729Z,977.16
2019-05-20T06:00:10.876Z,977.17
2019-05-20T06:01:11.025Z,977.16
2019-05-20T06:02:11.175Z,977.17
2019-05-20T06:03:11.334Z,977.14
2019-05-20T06:04:11.482Z,977.17
2019-05-20T06:05:11.632Z,977.15
2019-05-20T06:06:13.343Z,977.17
2019-05-20T06:07:11.937Z,977.16
2019-05-20T06:08:12.099Z,977.18
2019-05-20T06:09:12.243Z,977.14
2019-05-20T06:10:12.394Z,977.18
2019-05-20T06:11:12.552Z,977.18
2019-05-20T06:12:12.707Z,977.18
2019-05-20T06:13:12.859Z,977.23
2019-05-20T06:14:13.008Z,977.21
2019-05-20T06:15:13.163Z,977.24
2019-05-20T06:16:13.311Z,977.24
2019-05-20T06:17:13.467Z,977.25
2019-05-20T06:18:13.622Z,977.21
2019-05-20T06:19:13.774Z,977.25
2019-05-20T06:20:13.924Z,977.22
2019-05-20T06:21:14.097Z,977.26
2019-05-20T06:22:14.687Z,977.26
2019-05-20T06:23:14.385Z,977.26
2019-05-20T06:24:14.535Z,977.24
2019-05-20T06:25:14.720Z,977.26
2019-05-20T06:26:14.847Z,977.30
2019-05-20T06:27:15.002Z,977.26
2019-05-20T06:28:15.158Z,977.22
2019-05-20T06:29:15.307Z,977.25
2019-05-20T06:30:15.459Z,977.18
2019-05-20T06:31:15.614Z,977.18
2019-05-20T06:32:15.829Z,977.19
2019-05-20T06:33:15.928Z,977.16
2019-05-20T06:34:16.082Z,977.16
2019-05-20T06:35:16.237Z,977.16
2019-05-20T06:36:26.375Z,977.20
2019-05-20T06:37:16.544Z,977.22
2019-05-20T06:38:16.699Z,977.22
2019-05-20T06:39:16.851Z,977.23
2019-05-20T06:40:17.008Z,977.23
2019-05-20T06:41:17.160Z,977.26
2019-05-20T06:42:17.313Z,977.25
2019-05-20T06:43:17.466Z,977.23
2019-05-20T06:44:17.650Z,977.21
2019-05-20T06:45:17.775Z,977.20
2019-05-20T06:46:17.929Z,977.22
2019-05-20T06:47:18.084Z,977.19
2019-05-20T06:48:18.238Z,977.26
2019-05-20T06:49:18.391Z,977.30
2019-05-20T06:50:18.543Z,977.25
2019-05-20T06:51:18.701Z,977.24
2019-05-20T06:52:34.930Z,977.26
2019-05-20T06:53:19.007Z,977.25
2019-05-20T06:54:19.164Z,977.23
2019-05-20T06:55:19.320Z,977.28
2019-05-20T06:56:19.466Z,977.27
2019-05-20T06:57:19.617Z,977.32
2019-05-20T06:58:19.785Z,977.30
2019-05-20T06:59:19.926Z,977.31
2019-05-20T07:00:20.077Z,977.34
2019-05-20T07:01:20.231Z,977.31
2019-05-20T07:02:20.385Z,977.34
2019-05-20T07:03:20.539Z,977.33
2019-05-20T07:04:20.694Z,977.34
2019-05-20T07:05:20.847Z,977.29
2019-05-20T07:06:20.998Z,977.29
2019-05-20T07:07:21.553Z,977.28
2019-05-20T07:08:21.313Z,977.34
2019-05-20T07:09:21.467Z,977.33
2019-05-20T07:10:21.620Z,977.31
2019-05-20T07:11:21.784Z,977.31
2019-05-20T07:12:21.929Z,977.31
2019-05-20T07:13:22.080Z,977.25
2019-05-20T07:14:22.237Z,977.31
2019-05-20T07:15:22.387Z,977.32
2019-05-20T07:16:22.546Z,977.24
2019-05-20T07:17:22.700Z,977.32
2019-05-20T07:18:22.854Z,977.25
2019-05-20T07:19:23.009Z,977.27
2019-05-20T07:20:23.162Z,977.29
2019-05-20T07:21:23.316Z,977.32
2019-05-20T07:22:23.475Z,977.26
2019-05-20T07:23:23.625Z,977.26
2019-05-20T07:24:23.781Z,977.26
2019-05-20T07:25:23.939Z,977.19
2019-05-20T07:26:24.082Z,977.22
2019-05-20T07:27:24.237Z,977.23
2019-05-20T07:28:24.413Z,977.26
2019-05-20T07:29:24.559Z,977.22
2019-05-20T07:30:24.705Z,977.23
2019-05-20T07:31:24.857Z,977.24
2019-05-20T07:32:25.010Z,977.27
2019-05-20T07:33:25.165Z,977.29
2019-05-20T07:34:25.336Z,977.23
2019-05-20T07:35:30.682Z,977.23
2019-05-20T07:36:25.633Z,977.23
2019-05-20T07:37:25.785Z,977.27
2019-05-20T07:38:25.943Z,977.21
2019-05-20T07:39:26.090Z,977.18
2019-05-20T07:40:26.247Z,977.19
2019-05-20T07:41:26.400Z,977.17
2019-05-20T07:42:26.552Z,977.24
2019-05-20T07:43:26.712Z,977.24
2019-05-20T07:44:26.860Z,977.24
2019-05-20T07:45:27.023Z,977.24
2019-05-20T07:46:27.169Z,977.26
2019-05-20T07:47:27.325Z,977.26
2019-05-20T07:48:27.679Z,977.26
2019-05-20T07:49:27.635Z,977.26
2019-05-20T07:50:27.787Z,977.22
2019-05-20T07:51:27.942Z,977.24
2019-05-20T07:52:28.099Z,977.22
2019-05-20T07:53:28.268Z,977.22
2019-05-20T07:54:28.407Z,977.20
2019-05-20T07:55:28.562Z,977.20
2019-05-20T07:56:28.722Z,977.16
2019-05-20T07:57:28.873Z,977.17
2019-05-20T07:58:29.029Z,977.16
2019-05-20T07:59:29.185Z,977.16
2019-05-20T08:00:29.346Z,977.14
2019-05-20T08:01:29.543Z,977.13
2019-05-20T08:02:29.648Z,977.06
2019-05-20T08:03:29.803Z,977.10
2019-05-20T08:04:30.146Z,977.12
2019-05-20T08:05:30.114Z,977.12
2019-05-20T08:06:30.264Z,977.09
2019-05-20T08:07:50.277Z,977.11
2019-05-20T08:08:30.578Z,977.12
2019-05-20T08:09:30.742Z,977.11
2019-05-20T08:10:30.889Z,977.17
2019-05-20T08:11:31.044Z,977.16
2019-05-20T08:12:31.199Z,977.22
2019-05-20T08:13:31.359Z,977.19
2019-05-20T08:14:31.516Z,977.18
2019-05-20T08:15:31.669Z,977.17
2019-05-20T08:16:31.854Z,977.22
2019-05-20T08:17:31.959Z,977.16
2019-05-20T08:18:32.146Z,977.23
2019-05-20T08:19:32.307Z,977.26
2019-05-20T08:20:32.457Z,977.25
2019-05-20T08:21:32.638Z,977.25
2019-05-20T08:22:32.766Z,977.23
2019-05-20T08:23:32.927Z,977.27
2019-05-20T08:24:33.139Z,977.25
2019-05-20T08:25:33.233Z,977.23
2019-05-20T08:26:33.400Z,977.18
2019-05-20T08:27:33.545Z,977.23
2019-05-20T08:28:33.700Z,977.24
2019-05-20T08:29:33.854Z,977.19
2019-05-20T08:30:34.011Z,977.19
2019-05-20T08:31:34.182Z,977.20
2019-05-20T08:32:34.327Z,977.18
2019-05-20T08:33:34.520Z,977.20
2019-05-20T08:34:34.806Z,977.18
2019-05-20T08:35:34.804Z,977.16
2019-05-20T08:36:34.953Z,977.21
2019-05-20T08:37:44.743Z,977.16
2019-05-20T08:38:35.263Z,977.17
2019-05-20T08:39:35.418Z,977.15
2019-05-20T08:40:35.578Z,977.19
2019-05-20T08:41:35.738Z,977.18
2019-05-20T08:42:35.880Z,977.21
2019-05-20T08:43:36.037Z,977.19
2019-05-20T08:44:36.253Z,977.16
2019-05-20T08:45:36.352Z,977.12
2019-05-20T08:46:36.503Z,977.15
2019-05-20T08:47:36.664Z,977.13
2019-05-20T08:48:36.824Z,977.15
2019-05-20T08:49:36.993Z,977.19
2019-05-20T08:50:37.138Z,977.18
2019-05-20T08:51:37.300Z,977.12
2019-05-20T08:52:37.448Z,977.12
2019-05-20T08:53:37.606Z,977.11
2019-05-20T08:54:40.283Z,977.17
2019-05-20T08:55:37.932Z,977.23
2019-05-20T08:56:38.069Z,977.20
2019-05-20T08:57:38.239Z,977.20
2019-05-20T08:58:38.389Z,977.28
2019-05-20T08:59:38.544Z,977.24
2019-05-20T09:00:38.700Z,977.23
2019-05-20T09:01:38.855Z,977.18
2019-05-20T09:02:39.039Z,977.22
2019-05-20T09:03:39.176Z,977.21
2019-05-20T09:04:39.351Z,977.25
2019-05-20T09:05:39.551Z,977.22
2019-05-20T09:06:39.640Z,977.23
2019-05-20T09:07:39.794Z,977.19
2019-05-20T09:08:39.950Z,977.21
2019-05-20T09:09:40.132Z,977.22
2019-05-20T09:10:40.258Z,977.14
2019-05-20T09:11:40.431Z,977.15
2019-05-20T09:12:40.572Z,977.12
2019-05-20T09:13:40.792Z,977.17
2019-05-20T09:14:40.881Z,977.14
2019-05-20T09:15:41.045Z,977.18
2019-05-20T09:16:41.191Z,977.14
2019-05-20T09:17:41.353Z,977.15
2019-05-20T09:18:41.504Z,977.14
2019-05-20T09:19:41.663Z,977.11
2019-05-20T09:20:41.845Z,977.09
2019-05-20T09:21:41.977Z,977.12
2019-05-20T09:22:42.132Z,977.09
2019-05-20T09:23:42.280Z,977.16
2019-05-20T09:24:42.453Z,977.09
2019-05-20T09:25:42.616Z,977.06
2019-05-20T09:26:42.757Z,977.10
2019-05-20T09:27:42.897Z,977.01
2019-05-20T09:28:43.084Z,977.06
2019-05-20T09:29:43.208Z,977.03
2019-05-20T09:30:43.364Z,977.06
2019-05-20T09:31:43.519Z,977.05
2019-05-20T09:32:43.675Z,977.03
2019-05-20T09:33:43.847Z,977.00
2019-05-20T09:34:44.120Z,977.01
2019-05-20T09:35:44.140Z,977.05
2019-05-20T09:36:44.296Z,977.01
2019-05-20T09:37:44.452Z,976.98
2019-05-20T09:38:44.607Z,976.99
2019-05-20T09:39:44.765Z,977.00
2019-05-20T09:40:44.921Z,977.00
2019-05-20T09:41:45.082Z,976.99
2019-05-20T09:42:45.233Z,976.97
2019-05-20T09:43:45.459Z,977.05
2019-05-20T09:44:45.551Z,977.01
2019-05-20T09:45:45.709Z,976.97
2019-05-20T09:46:45.863Z,976.94
2019-05-20T09:47:46.019Z,976.97
2019-05-20T09:48:46.172Z,976.99
2019-05-20T09:49:46.330Z,976.90
2019-05-20T09:50:46.486Z,976.92
2019-05-20T09:51:46.642Z,976.95
2019-05-20T09:52:46.801Z,976.92
2019-05-20T09:53:46.955Z,976.86
2019-05-20T09:54:47.112Z,976.92
2019-05-20T09:55:47.266Z,976.94
2019-05-20T09:56:47.420Z,976.91
2019-05-20T09:57:47.575Z,976.92
2019-05-20T09:58:47.735Z,976.96
2019-05-20T09:59:47.888Z,976.95
2019-05-20T10:00:48.045Z,976.94
2019-05-20T10:01:49.791Z,976.95
2019-05-20T10:02:48.354Z,976.96
2019-05-20T10:03:48.513Z,976.98
2019-05-20T10:04:48.666Z,977.01
2019-05-20T10:05:48.821Z,976.95
2019-05-20T10:06:48.981Z,976.98
2019-05-20T10:07:49.137Z,977.03
2019-05-20T10:08:49.297Z,977.03
2019-05-20T10:09:49.448Z,977.00
2019-05-20T10:10:49.629Z,977.00
2019-05-20T10:11:49.799Z,977.04
2019-05-20T10:12:49.916Z,977.04
2019-05-20T10:13:50.074Z,977.03
2019-05-20T10:14:52.768Z,977.12
2019-05-20T10:15:50.406Z,977.05
2019-05-20T10:16:50.545Z,977.10
2019-05-20T10:17:50.697Z,977.15
2019-05-20T10:18:53.085Z,977.10
2019-05-20T10:19:51.017Z,977.15
2019-05-20T10:20:51.229Z,977.15
2019-05-20T10:21:51.342Z,977.15
2019-05-20T10:22:51.501Z,977.19
2019-05-20T10:23:51.681Z,977.19
2019-05-20T10:24:51.801Z,977.23
2019-05-20T10:25:51.956Z,977.24
2019-05-20T10:26:52.114Z,977.24
2019-05-20T10:27:52.271Z,977.23
2019-05-20T10:28:52.431Z,977.18
2019-05-20T10:29:52.589Z,977.18
2019-05-20T10:30:52.745Z,977.19
2019-05-20T10:31:52.901Z,977.18
2019-05-20T10:32:53.063Z,977.21
2019-05-20T10:33:53.216Z,977.17
2019-05-20T10:34:53.378Z,977.17
2019-05-20T10:35:53.537Z,977.16
2019-05-20T10:36:53.694Z,977.14
2019-05-20T10:37:53.845Z,977.15
2019-05-20T10:38:58.980Z,977.15
2019-05-20T10:39:54.163Z,977.16
2019-05-20T10:40:54.325Z,977.14
2019-05-20T10:41:54.476Z,977.19
2019-05-20T10:42:54.635Z,977.17
2019-05-20T10:43:54.790Z,977.16
2019-05-20T10:44:54.952Z,977.21
2019-05-20T10:45:55.110Z,977.17
2019-05-20T10:46:55.266Z,977.20
2019-05-20T10:47:55.429Z,977.16
2019-05-20T10:48:55.580Z,977.16
2019-05-20T10:49:55.738Z,977.17
2019-05-20T10:50:55.897Z,977.19
2019-05-20T10:51:56.051Z,977.12
2019-05-20T10:52:56.210Z,977.12
2019-05-20T10:53:56.377Z,977.12
2019-05-20T10:54:56.529Z,977.10
2019-05-20T10:55:57.111Z,977.17
2019-05-20T10:56:59.626Z,977.15
2019-05-20T10:57:57.033Z,977.14
2019-05-20T10:58:57.189Z,977.13
2019-05-20T10:59:57.350Z,977.12
2019-05-20T11:01:02.353Z,977.13
2019-05-20T11:01:57.668Z,977.10
2019-05-20T11:02:57.825Z,977.11
2019-05-20T11:03:57.975Z,977.09
2019-05-20T11:04:58.131Z,977.15
2019-05-20T11:05:58.286Z,977.12
2019-05-20T11:06:58.444Z,977.10
2019-05-20T11:07:58.604Z,977.07
2019-05-20T11:09:13.104Z,977.09
2019-05-20T11:09:58.921Z,977.09
2019-05-20T11:10:59.077Z,977.08
2019-05-20T11:11:59.308Z,977.06
2019-05-20T11:12:59.393Z,977.09
2019-05-20T11:13:59.554Z,977.07
2019-05-20T11:14:59.705Z,977.05
2019-05-20T11:15:59.861Z,977.03
2019-05-20T11:17:00.018Z,977.01
2019-05-20T11:18:00.176Z,977.03
2019-05-20T11:19:00.332Z,977.03
2019-05-20T11:20:00.491Z,977.00
2019-05-20T11:21:00.648Z,976.98
2019-05-20T11:22:00.801Z,976.99
2019-05-20T11:23:01.440Z,976.96
2019-05-20T11:24:01.120Z,976.93
2019-05-20T11:25:01.288Z,976.90
2019-05-20T11:26:01.430Z,976.89
2019-05-20T11:27:01.591Z,976.86
2019-05-20T11:28:01.748Z,976.82
2019-05-20T11:29:01.903Z,976.78
2019-05-20T11:30:02.092Z,976.79
2019-05-20T11:31:02.211Z,976.78
2019-05-20T11:32:02.369Z,976.82
2019-05-20T11:33:02.527Z,976.79
2019-05-20T11:34:02.684Z,976.78
2019-05-20T11:35:02.843Z,976.77
2019-05-20T11:36:03.006Z,976.78
2019-05-20T11:37:03.162Z,976.73
2019-05-20T11:38:03.319Z,976.73
2019-05-20T11:39:06.680Z,976.71
2019-05-20T11:40:04.864Z,976.67
2019-05-20T11:41:03.791Z,976.77
2019-05-20T11:42:03.955Z,976.67
2019-05-20T11:43:04.106Z,976.76
2019-05-20T11:44:04.275Z,976.69
2019-05-20T11:45:04.425Z,976.66
2019-05-20T11:46:04.580Z,976.64
2019-05-20T11:47:04.742Z,976.65
2019-05-20T11:48:04.893Z,976.62
2019-05-20T11:49:05.050Z,976.61
2019-05-20T11:50:05.209Z,976.62
2019-05-20T11:51:05.410Z,976.59
2019-05-20T11:52:05.523Z,976.54
2019-05-20T11:53:05.680Z,976.54
2019-05-20T11:54:05.840Z,976.58
2019-05-20T11:55:05.996Z,976.56
2019-05-20T11:56:06.160Z,976.55
2019-05-20T11:57:06.312Z,976.53
2019-05-20T11:58:15.735Z,976.51
2019-05-20T11:59:06.632Z,976.58
2019-05-20T12:00:06.784Z,976.52
2019-05-20T12:01:06.941Z,976.49
2019-05-20T12:02:07.101Z,976.47
2019-05-20T12:03:07.258Z,976.48
2019-05-20T12:04:07.416Z,976.56
2019-05-20T12:05:07.571Z,976.45
2019-05-20T12:06:08.038Z,976.52
2019-05-20T12:07:08.726Z,976.45
2019-05-20T12:08:08.047Z,976.47
2019-05-20T12:09:08.202Z,976.47
2019-05-20T12:10:08.358Z,976.47
2019-05-20T12:11:08.516Z,976.43
2019-05-20T12:12:08.670Z,976.39
2019-05-20T12:13:08.827Z,976.36
2019-05-20T12:14:08.983Z,976.31
2019-05-20T12:15:09.140Z,976.32
2019-05-20T12:16:09.298Z,976.25
2019-05-20T12:17:09.448Z,976.24
2019-05-20T12:18:09.607Z,976.23
2019-05-20T12:19:09.767Z,976.20
2019-05-20T12:20:11.871Z,976.19
2019-05-20T12:21:10.077Z,976.18
2019-05-20T12:22:10.233Z,976.20
2019-05-20T12:23:10.386Z,976.20
2019-05-20T12:24:10.548Z,976.14
2019-05-20T12:25:10.697Z,976.17
2019-05-20T12:26:10.853Z,976.14
2019-05-20T12:27:11.007Z,976.25
2019-05-20T12:28:11.163Z,976.22
2019-05-20T12:29:11.320Z,976.26
2019-05-20T12:30:11.546Z,976.29